Flowery Branch, GA (30542)

08:37 PM EDT on octombrie 22, 2014 (GMT -0400)
Hideaway Bay Marina | Change Station
CLOSE
Current Station
Staţie meteo personală
Location: Flowery Branch, GA
Elevation: 1109 ft
Nearby Weather Stations

Elev 1109 ft 34.18 °N, 83.94 °W | Updated 29 seconds ago

Cer senin
Cer senin
58.6 °F
Feels Like 58.6 °F
N
0.9
Vânt variabil Vânt from vest
Gusts 2.0 mph

astăzi
High -- | Low -- °F
--% Chance of Precip.
Ieri
High -- | Low -- °F
Precip. -- inch
7:46 AM 6:53 PM
Semilună în descreştere, 1% visible
Presiunea 30.08 inch
Vizibilitatea 10.0 mile
Nori Cer senin
Punctul de rouă 46 °F
Umiditatea 62%
Precipitaţii 0.00 inch
Adâncimea zăpezii Not available.
UV 0.0 out of 12
Pollen 2.80 out of 12
Calitatea aerului Not available.
Flu Activity Sporadic
METAR KGVL 222353Z AUTO 30006KT 10SM CLR 14/06 A3009 RMK AO2 SLP184 T01440061 10211 20144 53009

More Conditions Fewer Conditions

Presiunea 30.08 inch
Vizibilitatea 10.0 mile
Nori Cer senin
Punctul de rouă 46 °F
Umiditatea 62%
Precipitaţii 0.00 inch
Adâncimea zăpezii Not available.
UV 0.0 out of 12
Pollen 2.80 out of 12
Calitatea aerului Not available.
Flu Activity Sporadic
METAR KGVL 222353Z AUTO 30006KT 10SM CLR 14/06 A3009 RMK AO2 SLP184 T01440061 10211 20144 53009

More Conditions Fewer Conditions

10-Day Weather Forecast

Almanac

Astronomie

Oct. 22, 2014 Răsărit Apus
Timpul Actual 7:46 AM EDT 6:53 PM EDT
Crepusculul Civil 7:21 AM EDT 7:18 PM EDT
Crepusculul nautic 6:51 AM EDT 7:47 PM EDT
Răsărit Astronomic 6:22 AM EDT 8:16 PM EDT
Luna 6:30 AM EDT (10/22) 6:16 PM EDT (10/22)
Durata zilei lumină 11h 57m
Lungimea zilei
11h 06m
Tomorrow will be 1m 59s shorter.
Semilună în descreştere, 1% of the Moon is Illuminated
astăzi
Semilună în descreştere
Oct 23
New
Oct 30
Primul pătrar
Nov 6
Lună plină
Nov 14
Ultimul pătrar

Extremele de azi

State Highs State Lows

Community

WunderPhotos

Upload Photos

1,764,095 photos uploaded!

WunderBlogs® & News

Nearby

Adâncimea zapezii

Station Depth Elevation
No new snow has been reported.

Earthquake Activity

Oraş Distance Mag. Time & Date
No recent earthquake activity has been reported nearby.
Minimum magnitude displayed is 2.5.

Coastal Water Temperatures

Locul Temperatura
No Stations Reporting

Nearby Weather Stations